Time;durP1;ratioP1;P1;durP2;ratioP2;P2;SDS_P1;SDS_P2;PMS_P1;PMS_P2;Temp;Humidity;BMP_temperature;BMP_pressure;BME280_temperature;BME280_humidity;BME280_pressure;Samples;Min_cycle;Max_cycle;Signal;HPM_P1;HPM_P2
2022/05/23 00:00:15;;;;;;;30.25;25.77;;;21.40;81.40;;;;;;5054667;28;20493;-15
2022/05/23 00:02:41;;;;;;;32.53;27.05;;;21.40;81.00;;;;;;5054918;28;20039;-16
2022/05/23 00:05:07;;;;;;;32.30;28.17;;;21.40;81.60;;;;;;5054801;28;20021;-14
2022/05/23 00:07:37;;;;;;;32.55;26.38;;;21.40;81.10;;;;;;5054867;28;20167;-14
2022/05/23 00:10:06;;;;;;;45.80;36.35;;;21.40;80.90;;;;;;5054708;28;20024;-14
2022/05/23 00:12:32;;;;;;;35.25;27.85;;;21.40;81.20;;;;;;5054542;28;20103;-16
2022/05/23 00:14:59;;;;;;;31.67;25.95;;;21.50;81.00;;;;;;5054334;28;20021;-14
2022/05/23 00:17:24;;;;;;;28.52;23.38;;;21.50;80.80;;;;;;5036455;28;20048;-14
2022/05/23 00:19:51;;;;;;;29.95;26.70;;;21.50;80.70;;;;;;5036474;28;20401;-16
2022/05/23 00:22:18;;;;;;;37.53;31.27;;;21.50;80.70;;;;;;5054060;28;20029;-14
2022/05/23 00:24:45;;;;;;;26.98;21.80;;;21.50;80.70;;;;;;5054560;28;20040;-16
2022/05/23 00:27:23;;;;;;;27.20;23.08;;;21.50;80.60;;;;;;5054146;28;20032;-14
2022/05/23 00:29:50;;;;;;;25.77;22.83;;;21.50;80.60;;;;;;5054524;28;20116;-13
2022/05/23 00:35:18;;;;;;;33.38;29.02;;;21.50;80.60;;;;;;5054421;28;20044;-14
2022/05/23 00:37:46;;;;;;;33.95;29.92;;;21.40;80.70;;;;;;5053971;28;20025;-13
2022/05/23 00:43:21;;;;;;;31.35;26.63;;;21.40;81.20;;;;;;5142521;22;20056;-15
2022/05/23 00:46:01;;;;;;;33.03;27.00;;;21.40;81.00;;;;;;5054083;28;20472;-15
2022/05/23 00:48:29;;;;;;;33.15;28.65;;;21.30;81.30;;;;;;5053589;28;20028;-15
2022/05/23 00:51:02;;;;;;;47.80;38.30;;;21.30;81.50;;;;;;5053893;28;20100;-15
2022/05/23 00:53:39;;;;;;;36.83;31.85;;;21.30;82.40;;;;;;5053999;28;20029;-14
2022/05/23 00:56:09;;;;;;;33.15;28.33;;;21.30;82.40;;;;;;5053634;28;20039;-16
2022/05/23 00:58:46;;;;;;;33.90;30.23;;;21.20;82.70;;;;;;5053321;28;20033;-15
2022/05/23 01:01:17;;;;;;;33.42;28.00;;;21.20;82.70;;;;;;5035801;28;20439;-15
2022/05/23 01:03:43;;;;;;;31.08;26.52;;;21.20;82.30;;;;;;5053754;28;20107;-14
2022/05/23 01:06:09;;;;;;;31.75;27.60;;;21.20;82.10;;;;;;5053515;28;20484;-14
2022/05/23 01:08:38;;;;;;;30.20;26.67;;;21.20;81.90;;;;;;5053341;28;20028;-14
2022/05/23 01:11:04;;;;;;;29.73;25.67;;;21.20;81.80;;;;;;5035516;28;20515;-15
2022/05/23 01:13:31;;;;;;;34.42;27.60;;;21.20;81.90;;;;;;5053726;28;20037;-16
2022/05/23 01:15:58;;;;;;;37.08;30.98;;;21.20;81.90;;;;;;5053573;28;20471;-15
2022/05/23 01:18:24;;;;;;;33.67;26.65;;;21.20;81.80;;;;;;5053036;28;20391;-14
2022/05/23 01:20:59;;;;;;;42.72;35.80;;;21.20;81.90;;;;;;5053717;28;20024;-16
2022/05/23 01:23:56;;;;;;;29.60;24.40;;;21.30;81.90;;;;;;5140023;22;20053;-16
2022/05/23 01:26:22;;;;;;;31.88;27.88;;;21.30;81.90;;;;;;5052993;28;20024;-17
2022/05/23 01:28:48;;;;;;;36.25;30.40;;;21.30;81.70;;;;;;5053471;28;20021;-15
2022/05/23 01:31:15;;;;;;;29.38;24.67;;;21.30;81.70;;;;;;5053503;28;20021;-15
2022/05/23 01:33:41;;;;;;;23.75;21.17;;;21.40;81.60;;;;;;5053094;28;20029;-15
2022/05/23 01:36:15;;;;;;;24.98;20.77;;;21.30;81.80;;;;;;5053097;28;20116;-15
2022/05/23 01:38:41;;;;;;;26.27;22.30;;;21.40;81.70;;;;;;5052990;28;20029;-15
2022/05/23 01:41:09;;;;;;;26.30;22.67;;;21.30;81.60;;;;;;5053332;28;20024;-14
2022/05/23 01:43:35;;;;;;;32.85;26.30;;;21.40;81.50;;;;;;5053287;28;20388;-13
2022/05/23 01:46:01;;;;;;;27.98;22.83;;;21.40;81.60;;;;;;5035237;28;20112;-14
2022/05/23 01:48:27;;;;;;;26.90;21.55;;;21.40;82.50;;;;;;5052746;28;20136;-13
2022/05/23 01:50:53;;;;;;;24.02;20.35;;;21.40;82.80;;;;;;5052948;28;20078;-13
2022/05/23 01:53:20;;;;;;;29.05;24.88;;;21.30;82.90;;;;;;5052825;28;20029;-15
2022/05/23 01:55:45;;;;;;;26.67;21.73;;;21.30;83.20;;;;;;5052983;28;20070;-13
2022/05/23 01:58:11;;;;;;;23.50;19.10;;;21.30;83.10;;;;;;5052902;28;20025;-12
2022/05/23 02:03:21;;;;;;;20.52;17.65;;;21.20;83.90;;;;;;5054525;28;20048;-14
2022/05/23 02:05:47;;;;;;;25.90;22.00;;;21.20;82.80;;;;;;5056977;28;20469;-16
2022/05/23 02:08:13;;;;;;;23.38;19.65;;;21.20;82.60;;;;;;5056884;28;20028;-16
2022/05/23 02:10:39;;;;;;;22.73;19.15;;;21.20;83.10;;;;;;5057349;28;20364;-15
2022/05/23 02:13:05;;;;;;;21.45;17.88;;;21.20;82.70;;;;;;5057057;28;20025;-16
2022/05/23 02:15:32;;;;;;;21.60;18.58;;;21.20;82.50;;;;;;5056884;28;20048;-16
2022/05/23 02:18:00;;;;;;;22.35;19.05;;;21.10;82.50;;;;;;5038843;28;20029;-15
2022/05/23 02:20:27;;;;;;;20.60;17.00;;;21.10;82.40;;;;;;5056698;28;20086;-15
2022/05/23 02:22:54;;;;;;;22.60;17.38;;;21.10;82.30;;;;;;5144559;22;20412;-16
2022/05/23 02:25:21;;;;;;;21.40;18.52;;;21.10;82.00;;;;;;5056608;28;20545;-16
2022/05/23 02:27:47;;;;;;;19.85;17.38;;;21.10;82.10;;;;;;5055664;28;20021;-15
2022/05/23 02:30:13;;;;;;;20.45;17.73;;;21.10;82.00;;;;;;5056663;28;20032;-16
2022/05/23 02:32:39;;;;;;;23.33;18.33;;;21.10;82.00;;;;;;5055150;28;20036;-15
2022/05/23 02:35:07;;;;;;;18.98;16.63;;;21.10;81.90;;;;;;5056851;28;20112;-15
2022/05/23 02:37:33;;;;;;;22.25;18.80;;;21.10;81.90;;;;;;5056124;28;20037;-15
2022/05/23 02:39:59;;;;;;;21.45;18.33;;;21.10;82.00;;;;;;5056407;28;20083;-14
2022/05/23 02:42:25;;;;;;;21.33;17.27;;;21.20;81.90;;;;;;5055902;28;20029;-15
2022/05/23 02:44:51;;;;;;;27.75;22.80;;;21.10;81.80;;;;;;5056470;28;20104;-14
2022/05/23 02:47:17;;;;;;;30.52;26.35;;;21.20;81.80;;;;;;5056325;28;20099;-17
2022/05/23 02:49:43;;;;;;;21.92;18.88;;;21.20;81.90;;;;;;5056372;28;20025;-15
2022/05/23 02:52:08;;;;;;;20.92;18.17;;;21.20;82.00;;;;;;5056129;28;20037;-15
2022/05/23 02:54:35;;;;;;;23.00;20.13;;;21.10;81.90;;;;;;5055771;28;20029;-15
2022/05/23 02:57:01;;;;;;;23.75;19.77;;;21.20;81.90;;;;;;5055922;28;20025;-14
2022/05/23 02:59:27;;;;;;;25.15;20.17;;;21.20;82.20;;;;;;5056067;28;20024;-16
2022/05/23 03:04:37;;;;;;;31.23;24.35;;;21.10;82.70;;;;;;5055674;28;20408;-17
2022/05/23 03:07:03;;;;;;;40.70;31.67;;;21.10;83.30;;;;;;5055920;28;20025;-15
2022/05/23 03:09:31;;;;;;;30.85;25.10;;;21.00;84.60;;;;;;5055946;28;20032;-14
2022/05/23 03:11:57;;;;;;;36.50;29.92;;;20.90;84.30;;;;;;5056065;28;20033;-15
2022/05/23 03:14:25;;;;;;;29.45;25.67;;;20.80;84.50;;;;;;5055340;28;20029;-16
2022/05/23 03:16:51;;;;;;;31.77;28.33;;;20.70;85.00;;;;;;5055462;28;20029;-14
2022/05/23 03:19:17;;;;;;;38.50;32.92;;;20.60;85.20;;;;;;5037645;28;20033;-15
2022/05/23 03:27:11;;;;;;;34.08;28.58;;;20.50;85.70;;;;;;5055730;28;20388;-17
2022/05/23 03:29:37;;;;;;;43.63;35.42;;;20.50;85.60;;;;;;5055763;28;20484;-15
2022/05/23 03:32:05;;;;;;;33.08;27.65;;;20.50;86.50;;;;;;5055607;28;20024;-15
2022/05/23 03:34:31;;;;;;;35.67;29.05;;;20.40;85.70;;;;;;5054954;28;20106;-15
2022/05/23 03:36:57;;;;;;;34.63;29.35;;;20.40;86.50;;;;;;5055195;28;20061;-17
2022/05/23 03:39:23;;;;;;;40.10;32.40;;;20.30;86.00;;;;;;5055143;28;20407;-16
2022/05/23 03:41:53;;;;;;;43.90;35.83;;;20.30;86.70;;;;;;5055265;28;20017;-15
2022/05/23 03:44:19;;;;;;;41.95;32.78;;;20.30;86.70;;;;;;5054815;28;20545;-14
2022/05/23 03:46:45;;;;;;;40.58;32.97;;;20.20;87.50;;;;;;5055036;28;20027;-16
2022/05/23 03:49:11;;;;;;;44.50;35.60;;;20.20;87.60;;;;;;5037260;28;20021;-15
2022/05/23 03:51:40;;;;;;;48.83;37.28;;;20.20;87.50;;;;;;5055107;28;20108;-13
2022/05/23 03:54:07;;;;;;;36.28;28.25;;;20.20;87.70;;;;;;5054841;28;20075;-13
2022/05/23 03:56:33;;;;;;;43.85;32.72;;;20.10;87.30;;;;;;5054912;28;20028;-15
2022/05/23 03:58:59;;;;;;;30.98;26.63;;;20.20;87.50;;;;;;5055018;28;20507;-15
2022/05/23 04:01:27;;;;;;;38.75;29.02;;;20.20;86.80;;;;;;5055046;28;20025;-14
2022/05/23 04:03:53;;;;;;;33.92;28.17;;;20.20;86.80;;;;;;5054910;28;20036;-12
2022/05/23 04:06:19;;;;;;;32.47;26.27;;;20.30;87.20;;;;;;5054554;28;20112;-12
2022/05/23 04:08:45;;;;;;;38.33;29.27;;;20.30;86.90;;;;;;5054568;28;20365;-12
2022/05/23 04:11:10;;;;;;;26.73;22.75;;;20.30;86.30;;;;;;5054976;28;20533;-12
2022/05/23 04:13:36;;;;;;;22.83;20.02;;;20.40;85.70;;;;;;5054868;28;20086;-12
2022/05/23 04:16:03;;;;;;;25.55;21.58;;;20.40;85.30;;;;;;5054485;28;20506;-14
2022/05/23 04:18:29;;;;;;;25.10;21.83;;;20.50;85.20;;;;;;5054105;28;20108;-14
2022/05/23 04:20:57;;;;;;;21.42;19.10;;;20.50;85.00;;;;;;5054439;28;20116;-15
2022/05/23 04:23:24;;;;;;;20.77;18.05;;;20.60;84.70;;;;;;5054323;28;20059;-15
2022/05/23 04:25:50;;;;;;;26.08;21.10;;;20.60;84.60;;;;;;5053787;28;20029;-14
2022/05/23 04:28:18;;;;;;;28.65;22.88;;;20.70;84.40;;;;;;5054484;28;20100;-15
2022/05/23 04:30:45;;;;;;;30.50;24.98;;;20.70;84.50;;;;;;5054464;28;20104;-15
2022/05/23 04:35:58;;;;;;;27.27;23.70;;;20.70;85.70;;;;;;5054448;28;20032;-15
2022/05/23 04:38:24;;;;;;;26.88;22.70;;;20.70;84.70;;;;;;5053676;28;20472;-14
2022/05/23 04:40:50;;;;;;;26.95;22.67;;;20.80;84.40;;;;;;5054935;28;20047;-16
2022/05/23 04:43:17;;;;;;;32.30;26.77;;;20.80;84.30;;;;;;5053908;28;20590;-16
2022/05/23 04:45:43;;;;;;;32.40;26.05;;;20.90;85.00;;;;;;5054172;28;20084;-15
2022/05/23 04:50:54;;;;;;;34.78;29.10;;;21.10;84.30;;;;;;5054362;28;20428;-16
2022/05/23 04:53:20;;;;;;;25.92;22.33;;;21.20;84.20;;;;;;5053740;28;20055;-17
2022/05/23 04:55:46;;;;;;;32.22;27.42;;;21.30;84.10;;;;;;5054032;28;20064;-14
2022/05/23 04:58:13;;;;;;;37.47;29.98;;;21.30;84.20;;;;;;5053858;28;20033;-16
2022/05/23 05:00:42;;;;;;;30.00;25.58;;;21.40;84.10;;;;;;5053620;28;20077;-14
2022/05/23 05:03:09;;;;;;;32.47;26.45;;;21.40;84.00;;;;;;5053949;28;20017;-14
2022/05/23 05:05:35;;;;;;;26.15;22.20;;;21.40;83.30;;;;;;5054143;28;20113;-13
2022/05/23 05:08:03;;;;;;;25.75;22.08;;;21.40;83.20;;;;;;5053429;28;20029;-13
2022/05/23 05:10:29;;;;;;;25.33;22.25;;;21.40;83.00;;;;;;5035759;28;20036;-14
2022/05/23 05:12:57;;;;;;;25.52;20.98;;;21.40;82.80;;;;;;5053810;28;20028;-14
2022/05/23 05:15:26;;;;;;;28.27;23.85;;;21.40;82.70;;;;;;5053337;28;20033;-13
2022/05/23 05:17:52;;;;;;;31.35;26.05;;;21.40;83.00;;;;;;5053532;28;20040;-14
2022/05/23 05:20:18;;;;;;;29.58;23.83;;;21.40;83.70;;;;;;5053011;28;20503;-14
2022/05/23 05:22:45;;;;;;;25.25;21.42;;;21.40;83.80;;;;;;5053149;28;20052;-15
2022/05/23 05:25:12;;;;;;;28.35;23.05;;;21.40;83.10;;;;;;5053219;28;20068;-14
2022/05/23 05:27:39;;;;;;;24.77;21.20;;;21.40;83.40;;;;;;5053160;28;20507;-14
2022/05/23 05:30:08;;;;;;;27.80;23.55;;;21.50;83.20;;;;;;5053416;28;20431;-13
2022/05/23 05:32:37;;;;;;;28.67;23.98;;;21.60;83.00;;;;;;5053131;28;20032;-14
2022/05/23 05:35:09;;;;;;;32.53;26.02;;;21.70;83.00;;;;;;5053355;28;20086;-15
2022/05/23 05:37:44;;;;;;;33.20;25.95;;;21.70;82.70;;;;;;5052460;28;20116;-15
2022/05/23 05:40:16;;;;;;;30.17;25.30;;;21.80;83.10;;;;;;5053079;28;20059;-14
2022/05/23 05:42:47;;;;;;;27.42;24.05;;;21.70;83.10;;;;;;5053336;28;20040;-15
2022/05/23 05:45:22;;;;;;;30.52;24.92;;;21.80;82.60;;;;;;5053335;28;20452;-14
2022/05/23 05:47:50;;;;;;;26.80;23.95;;;21.80;82.80;;;;;;5053334;28;20029;-16
2022/05/23 05:50:23;;;;;;;35.65;29.38;;;21.80;82.60;;;;;;5052679;28;20025;-16
2022/05/23 05:52:51;;;;;;;31.40;26.67;;;21.80;82.70;;;;;;5052882;28;20075;-16
2022/05/23 05:55:18;;;;;;;34.33;28.25;;;21.80;82.80;;;;;;5053577;28;20431;-16
2022/05/23 05:57:44;;;;;;;36.10;27.88;;;21.80;82.60;;;;;;5052775;28;20033;-14
2022/05/23 06:00:10;;;;;;;30.00;25.45;;;21.80;82.60;;;;;;5052847;28;20032;-17
2022/05/23 06:02:37;;;;;;;35.17;26.38;;;21.90;82.40;;;;;;5052706;28;20033;-15
2022/05/23 06:05:04;;;;;;;35.72;25.63;;;21.90;82.40;;;;;;5052845;28;20029;-16
2022/05/23 06:13:02;;;;;;;32.95;26.38;;;22.10;81.80;;;;;;5053134;28;20087;-15
2022/05/23 06:15:28;;;;;;;36.00;27.45;;;22.30;81.30;;;;;;5035260;28;20028;-15
2022/05/23 06:17:54;;;;;;;32.03;28.02;;;22.40;81.10;;;;;;5052927;28;20029;-16
2022/05/23 06:20:22;;;;;;;32.85;27.73;;;22.40;80.00;;;;;;5052443;28;20399;-17
2022/05/23 06:22:50;;;;;;;30.67;25.90;;;22.40;80.20;;;;;;5052458;28;20049;-16
2022/05/23 06:25:16;;;;;;;32.08;26.02;;;22.50;80.20;;;;;;5052976;28;20059;-15
2022/05/23 06:27:43;;;;;;;28.35;24.63;;;22.60;79.70;;;;;;5052833;28;20427;-16
2022/05/23 06:30:11;;;;;;;28.80;24.65;;;22.60;79.00;;;;;;5052666;28;20393;-15
2022/05/23 06:32:38;;;;;;;32.30;25.60;;;22.80;79.30;;;;;;5052314;28;20411;-15
2022/05/23 06:35:07;;;;;;;32.60;24.20;;;22.90;78.30;;;;;;5052751;28;20479;-15
2022/05/23 06:37:41;;;;;;;26.55;22.95;;;22.90;77.40;;;;;;5052371;28;20029;-15
2022/05/23 06:40:10;;;;;;;31.00;22.55;;;23.10;77.90;;;;;;5052656;28;20454;-16
2022/05/23 06:42:37;;;;;;;28.08;23.13;;;23.20;77.30;;;;;;5052509;28;20032;-15
2022/05/23 06:45:06;;;;;;;26.13;21.08;;;23.30;77.10;;;;;;5052718;28;20071;-15
2022/05/23 06:47:33;;;;;;;23.67;19.38;;;23.40;76.70;;;;;;5052706;28;20025;-15
2022/05/23 06:49:59;;;;;;;26.42;20.85;;;23.50;76.70;;;;;;5054765;28;20029;-15
2022/05/23 06:52:25;;;;;;;26.25;21.73;;;23.60;76.50;;;;;;5055718;28;20047;-15
2022/05/23 06:54:51;;;;;;;23.65;19.00;;;23.70;76.20;;;;;;5056089;28;20519;-14
2022/05/23 06:57:17;;;;;;;23.02;18.40;;;23.70;75.80;;;;;;5055951;28;20065;-14
2022/05/23 06:59:43;;;;;;;20.83;18.58;;;23.70;75.40;;;;;;5056465;28;20033;-15
2022/05/23 07:02:10;;;;;;;22.33;17.55;;;23.70;75.10;;;;;;5055980;28;20021;-17
2022/05/23 07:12:52;;;;;;;22.00;18.95;;;24.00;74.20;;;;;;5056084;28;20051;-16
2022/05/23 07:15:18;;;;;;;21.83;19.45;;;24.10;74.20;;;;;;5055580;28;20031;-15
2022/05/23 07:18:08;;;;;;;25.13;20.00;;;24.30;73.30;;;;;;5055773;28;20488;-16
2022/05/23 07:20:34;;;;;;;20.20;17.45;;;24.40;72.40;;;;;;5055349;28;20028;-14
2022/05/23 07:23:00;;;;;;;21.67;18.35;;;24.50;72.10;;;;;;5055235;28;20072;-15
2022/05/23 07:25:26;;;;;;;22.63;19.73;;;24.70;72.00;;;;;;5055394;28;20065;-14
2022/05/23 07:27:51;;;;;;;18.25;15.98;;;24.80;71.30;;;;;;5055661;28;20108;-14
2022/05/23 07:30:19;;;;;;;18.10;15.60;;;24.80;71.50;;;;;;5055110;28;20155;-15
2022/05/23 07:32:45;;;;;;;20.83;17.77;;;24.80;70.80;;;;;;5055798;28;20017;-15
2022/05/23 07:35:11;;;;;;;22.63;20.25;;;24.90;70.60;;;;;;5055652;28;20025;-15
2022/05/23 07:37:37;;;;;;;23.02;19.90;;;25.00;69.40;;;;;;5055040;28;20442;-17
2022/05/23 07:40:04;;;;;;;23.52;18.35;;;25.00;70.60;;;;;;5055146;28;20029;-15
2022/05/23 07:42:31;;;;;;;19.52;15.40;;;25.20;69.90;;;;;;5054782;28;20036;-15
2022/05/23 07:44:58;;;;;;;19.42;15.88;;;25.40;70.00;;;;;;5055342;28;20090;-16
2022/05/23 07:47:24;;;;;;;21.67;18.58;;;25.70;69.10;;;;;;5037635;28;20013;-15
2022/05/23 07:49:50;;;;;;;23.67;19.77;;;26.10;68.60;;;;;;5054976;28;20032;-15
2022/05/23 07:52:16;;;;;;;18.50;15.90;;;26.40;66.10;;;;;;5054761;28;20060;-14
2022/05/23 08:00:33;;;;;;;15.52;13.52;;;27.00;64.10;;;;;;5054124;28;20559;-17
2022/05/23 08:03:10;;;;;;;17.95;14.50;;;27.10;64.20;;;;;;5055102;28;20046;-15
2022/05/23 08:05:37;;;;;;;19.42;16.15;;;27.20;64.10;;;;;;5054721;28;20040;-14
2022/05/23 08:08:03;;;;;;;20.92;16.25;;;27.20;63.90;;;;;;5054746;28;20419;-14
2022/05/23 08:10:29;;;;;;;16.77;13.00;;;27.20;62.00;;;;;;5054674;28;20021;-15
2022/05/23 08:12:57;;;;;;;20.50;15.32;;;27.40;62.80;;;;;;5054453;28;20138;-15
2022/05/23 08:15:26;;;;;;;18.30;16.13;;;27.70;62.60;;;;;;5054770;28;20431;-14
2022/05/23 08:17:52;;;;;;;17.27;13.90;;;28.00;62.00;;;;;;5054369;28;20040;-13
2022/05/23 08:20:18;;;;;;;15.13;12.75;;;28.40;61.30;;;;;;5054363;28;20029;-14
2022/05/23 08:22:47;;;;;;;17.00;13.95;;;28.80;60.70;;;;;;5054102;28;20124;-14
2022/05/23 08:25:13;;;;;;;17.95;12.90;;;29.10;58.90;;;;;;5125593;22;20195;-18
2022/05/23 08:27:57;;;;;;;18.48;15.68;;;29.50;57.50;;;;;;5125137;22;20068;-20
2022/05/23 08:34:08;;;;;;;20.75;14.90;;;29.60;56.80;;;;;;5054552;28;20133;-18
2022/05/23 08:37:02;;;;;;;16.77;13.43;;;29.80;55.90;;;;;;5036167;28;20174;-17
2022/05/23 08:42:58;;;;;;;12.27;9.48;;;29.90;54.50;;;;;;5146737;22;20095;-15
2022/05/23 08:45:35;;;;;;;16.23;12.68;;;30.10;54.10;;;;;;4992483;28;20069;-14
2022/05/23 08:48:18;;;;;;;14.85;11.20;;;30.30;53.90;;;;;;4994712;28;20065;-13
2022/05/23 08:51:25;;;;;;;12.80;10.37;;;30.30;54.00;;;;;;4995005;28;20478;-14
2022/05/23 08:54:20;;;;;;;14.82;11.23;;;30.60;50.60;;;;;;4953734;28;20499;-14
2022/05/23 08:56:52;;;;;;;14.30;10.80;;;30.70;52.10;;;;;;4953735;29;20043;-14
2022/05/23 08:59:27;;;;;;;12.40;9.88;;;30.90;52.10;;;;;;4953747;29;20030;-14
2022/05/23 09:09:04;;;;;;;14.10;9.48;;;31.40;49.00;;;;;;5066889;22;20061;-14
2022/05/23 09:11:42;;;;;;;10.73;9.50;;;31.40;49.20;;;;;;5013817;28;20088;-14
2022/05/23 09:14:10;;;;;;;12.48;10.73;;;31.40;50.60;;;;;;5013799;28;20381;-13
2022/05/23 09:16:43;;;;;;;15.02;11.57;;;31.40;50.70;;;;;;5013531;28;20484;-13
2022/05/23 09:19:22;;;;;;;13.63;10.18;;;31.20;49.40;;;;;;5014215;28;20022;-13
2022/05/23 09:24:55;;;;;;;12.68;8.77;;;31.10;51.20;;;;;;5013564;28;20036;-14
2022/05/23 09:27:44;;;;;;;11.75;8.75;;;31.10;51.30;;;;;;5013992;28;20029;-14
2022/05/23 09:30:17;;;;;;;13.35;9.57;;;31.70;50.30;;;;;;5013687;28;20032;-13
2022/05/23 09:33:15;;;;;;;12.02;8.77;;;31.90;49.70;;;;;;5014105;28;20022;-14
2022/05/23 09:36:10;;;;;;;14.15;9.95;;;32.10;48.10;;;;;;4953185;29;20499;-14
2022/05/23 09:39:01;;;;;;;11.02;8.65;;;31.90;47.60;;;;;;4952873;29;20398;-14
2022/05/23 09:50:11;;;;;;;12.75;9.00;;;32.30;47.10;;;;;;4953473;29;20411;-13
2022/05/23 09:52:47;;;;;;;15.27;11.02;;;32.30;47.50;;;;;;4952770;29;20115;-14
2022/05/23 09:55:24;;;;;;;11.10;9.30;;;32.50;46.90;;;;;;4953070;29;20079;-14
2022/05/23 09:57:53;;;;;;;14.60;8.90;;;32.60;44.90;;;;;;4952898;29;20582;-13
2022/05/23 10:00:22;;;;;;;11.48;9.70;;;32.80;47.10;;;;;;4952761;29;20645;-14
2022/05/23 10:03:19;;;;;;;10.75;8.77;;;33.00;46.30;;;;;;4952905;29;20031;-14
2022/05/23 10:05:50;;;;;;;13.05;9.02;;;33.20;44.30;;;;;;4952290;29;20103;-14
2022/05/23 10:08:28;;;;;;;14.52;10.15;;;33.40;46.10;;;;;;4952212;29;20055;-14
2022/05/23 10:11:01;;;;;;;14.68;10.63;;;33.50;45.70;;;;;;4954363;28;20019;-13
2022/05/23 10:13:36;;;;;;;11.07;9.05;;;33.40;45.20;;;;;;5013394;28;20030;-13
2022/05/23 10:16:08;;;;;;;14.18;9.43;;;33.30;45.90;;;;;;5013299;28;20029;-13
2022/05/23 10:18:44;;;;;;;10.23;8.88;;;33.30;45.50;;;;;;5012778;28;20584;-13
2022/05/23 10:21:26;;;;;;;12.40;9.45;;;33.40;46.10;;;;;;5013511;28;20022;-14
2022/05/23 10:24:14;;;;;;;12.93;11.48;;;33.70;44.20;;;;;;5013705;28;20030;-14
2022/05/23 10:26:54;;;;;;;9.75;8.20;;;33.80;45.20;;;;;;5017195;28;20056;-14
2022/05/23 10:29:51;;;;;;;10.05;8.05;;;33.90;45.60;;;;;;5016853;28;20541;-14
2022/05/23 10:32:43;;;;;;;11.32;8.77;;;34.40;43.50;;;;;;5009141;28;20037;-14
2022/05/23 10:35:18;;;;;;;12.18;8.27;;;34.70;43.10;;;;;;5010073;28;20124;-14
2022/05/23 10:37:46;;;;;;;10.18;8.52;;;35.00;42.40;;;;;;5016545;28;20045;-13
2022/05/23 10:43:21;;;;;;;10.00;8.00;;;35.10;43.00;;;;;;5017133;28;20041;-13
2022/05/23 10:45:56;;;;;;;9.38;7.50;;;34.90;42.80;;;;;;5008718;28;20053;-14
2022/05/23 10:49:15;;;;;;;11.40;8.13;;;35.10;43.00;;;;;;5016449;28;20026;-13
2022/05/23 10:52:29;;;;;;;9.63;8.63;;;35.60;41.80;;;;;;4956151;29;20024;-15
2022/05/23 10:55:08;;;;;;;13.43;8.55;;;36.10;40.80;;;;;;4955980;29;20035;-14
2022/05/23 10:57:56;;;;;;;9.90;7.60;;;36.50;38.60;;;;;;4956262;29;20035;-14
2022/05/23 11:00:34;;;;;;;11.07;7.53;;;36.50;39.20;;;;;;4955794;29;20094;-14
2022/05/23 11:03:18;;;;;;;14.90;8.95;;;36.30;39.60;;;;;;4955779;29;20035;-14
2022/05/23 11:06:10;;;;;;;10.20;7.53;;;36.10;39.60;;;;;;4955867;29;20039;-14
2022/05/23 11:08:56;;;;;;;11.40;8.32;;;35.80;39.60;;;;;;4955264;29;20434;-14
2022/05/23 11:11:43;;;;;;;14.63;9.90;;;35.60;40.20;;;;;;4956116;29;20127;-14
2022/05/23 11:14:37;;;;;;;10.73;7.72;;;35.20;41.60;;;;;;4955746;29;20033;-14
2022/05/23 11:17:03;;;;;;;9.52;7.72;;;35.10;41.60;;;;;;4955597;29;20073;-14
2022/05/23 11:19:46;;;;;;;12.00;9.57;;;35.20;41.80;;;;;;4955517;29;20122;-14
2022/05/23 11:22:20;;;;;;;10.07;7.85;;;35.00;42.10;;;;;;4955449;29;20031;-14
2022/05/23 11:25:02;;;;;;;9.82;8.30;;;34.80;42.80;;;;;;4958301;28;20091;-14
2022/05/23 11:35:59;;;;;;;14.40;10.45;;;33.30;45.80;;;;;;4975441;28;20081;-13
2022/05/23 11:38:27;;;;;;;12.02;8.68;;;33.00;46.10;;;;;;4976534;28;20082;-13
2022/05/23 11:41:07;;;;;;;14.30;9.93;;;32.70;46.80;;;;;;4976457;28;20026;-14
2022/05/23 11:43:34;;;;;;;15.80;13.02;;;32.70;47.00;;;;;;4976822;28;20470;-14
2022/05/23 11:46:04;;;;;;;11.52;9.88;;;32.60;46.90;;;;;;4975400;28;20034;-13
2022/05/23 11:48:41;;;;;;;11.40;9.15;;;32.60;47.00;;;;;;4976163;28;20114;-14
2022/05/23 11:51:30;;;;;;;11.38;9.38;;;32.80;47.20;;;;;;4976364;28;20553;-13
2022/05/23 11:54:10;;;;;;;11.57;8.70;;;33.20;46.90;;;;;;4976705;28;20050;-14
2022/05/23 11:56:48;;;;;;;12.00;10.35;;;33.50;46.80;;;;;;4976081;28;20106;-14
2022/05/23 11:59:26;;;;;;;11.43;9.43;;;33.90;45.70;;;;;;4976650;28;20042;-13
2022/05/23 12:02:06;;;;;;;15.25;11.15;;;34.20;45.20;;;;;;4976719;28;20023;-13
2022/05/23 12:04:34;;;;;;;12.27;9.32;;;34.30;44.50;;;;;;4975919;28;20501;-13
2022/05/23 12:07:00;;;;;;;12.57;9.20;;;34.40;44.40;;;;;;4976818;28;20034;-14
2022/05/23 12:09:33;;;;;;;11.50;10.30;;;34.40;44.50;;;;;;4997450;28;20030;-13
2022/05/23 12:12:29;;;;;;;12.13;9.93;;;34.90;43.90;;;;;;5014897;28;20566;-14
2022/05/23 12:14:56;;;;;;;10.77;8.95;;;35.40;42.50;;;;;;5014856;28;20476;-14
2022/05/23 12:17:30;;;;;;;13.40;10.73;;;35.70;41.90;;;;;;5014802;28;20133;-13
2022/05/23 12:19:59;;;;;;;14.63;10.18;;;36.00;42.00;;;;;;5015433;28;20105;-14
2022/05/23 12:22:35;;;;;;;14.23;9.75;;;36.30;42.00;;;;;;5014380;28;20022;-14
2022/05/23 12:25:12;;;;;;;14.02;11.60;;;36.50;40.50;;;;;;5014709;28;20053;-14
2022/05/23 12:27:59;;;;;;;11.32;8.73;;;36.40;40.80;;;;;;4997096;28;20145;-14
2022/05/23 12:30:39;;;;;;;14.20;10.35;;;36.40;41.00;;;;;;5014277;28;20030;-14
2022/05/23 12:33:28;;;;;;;14.00;11.95;;;36.50;41.10;;;;;;5014524;28;20022;-14
2022/05/23 12:35:57;;;;;;;10.13;9.00;;;36.50;40.90;;;;;;5014021;28;20034;-14
2022/05/23 12:38:23;;;;;;;12.13;10.73;;;36.20;41.10;;;;;;5014194;28;20023;-14
2022/05/23 12:41:10;;;;;;;12.18;10.38;;;36.00;41.30;;;;;;5014659;28;20022;-13
2022/05/23 12:43:58;;;;;;;13.00;10.00;;;36.00;41.70;;;;;;5014655;28;20362;-13
2022/05/23 12:46:48;;;;;;;12.65;11.25;;;36.10;40.80;;;;;;5013895;28;20026;-14
2022/05/23 12:49:14;;;;;;;12.85;9.98;;;35.80;41.10;;;;;;5014650;28;20044;-13
2022/05/23 12:51:59;;;;;;;14.00;9.63;;;35.50;41.70;;;;;;5014180;28;20476;-14
2022/05/23 12:55:06;;;;;;;11.10;9.80;;;35.40;42.10;;;;;;5014461;28;20145;-14
2022/05/23 12:58:22;;;;;;;10.30;8.98;;;35.30;42.10;;;;;;4986225;28;20034;-13
2022/05/23 13:01:03;;;;;;;13.75;9.27;;;35.40;42.20;;;;;;5011554;28;20038;-13
2022/05/23 13:04:01;;;;;;;12.52;9.98;;;35.50;42.70;;;;;;5014038;28;20021;-13
2022/05/23 13:06:31;;;;;;;12.73;9.32;;;35.80;41.50;;;;;;5008328;28;20059;-13
2022/05/23 13:09:11;;;;;;;16.17;9.38;;;35.80;41.60;;;;;;5013745;28;20151;-14
2022/05/23 13:11:52;;;;;;;15.38;10.63;;;35.90;41.00;;;;;;5014110;28;20045;-14
2022/05/23 13:14:18;;;;;;;11.82;9.32;;;35.60;41.30;;;;;;5013922;28;20140;-13
2022/05/23 13:16:54;;;;;;;12.10;9.27;;;35.30;42.30;;;;;;5014030;28;20509;-13
2022/05/23 13:22:12;;;;;;;10.68;8.65;;;35.30;41.80;;;;;;5013959;28;20057;-14
2022/05/23 13:24:50;;;;;;;9.70;8.27;;;35.30;42.00;;;;;;5013560;28;20046;-14
2022/05/23 13:27:27;;;;;;;11.40;8.90;;;35.30;42.40;;;;;;5013609;28;20041;-15
2022/05/23 13:29:59;;;;;;;13.32;10.13;;;35.20;42.30;;;;;;5013818;28;20026;-13
2022/05/23 13:32:27;;;;;;;10.30;8.25;;;35.20;42.40;;;;;;5013368;28;20499;-13
2022/05/23 13:34:55;;;;;;;10.65;8.10;;;35.10;42.50;;;;;;5013534;28;20033;-13
2022/05/23 13:37:36;;;;;;;11.52;9.00;;;35.00;42.50;;;;;;5013703;28;20034;-13
2022/05/23 13:40:33;;;;;;;9.88;8.88;;;35.10;42.10;;;;;;5013814;28;20042;-15
2022/05/23 13:43:18;;;;;;;10.23;8.50;;;35.20;43.20;;;;;;5013228;28;20048;-14
2022/05/23 13:45:48;;;;;;;8.88;7.15;;;35.40;42.30;;;;;;5013723;28;20105;-14
2022/05/23 13:48:26;;;;;;;10.20;8.23;;;35.40;42.30;;;;;;5013574;28;20026;-16
2022/05/23 13:51:00;;;;;;;10.73;9.18;;;35.30;42.20;;;;;;5014099;28;20029;-14
2022/05/23 13:53:32;;;;;;;10.50;8.07;;;35.30;42.70;;;;;;5013279;28;20034;-14
2022/05/23 13:56:02;;;;;;;16.90;9.52;;;35.20;42.50;;;;;;4995830;28;20018;-14
2022/05/23 13:58:32;;;;;;;12.63;8.20;;;35.10;42.60;;;;;;5012952;28;20034;-13
2022/05/23 14:01:50;;;;;;;13.13;8.77;;;35.20;42.40;;;;;;5017394;28;20044;-13
2022/05/23 14:04:21;;;;;;;12.48;8.30;;;35.40;41.30;;;;;;4953878;29;20495;-15
2022/05/23 14:06:57;;;;;;;11.52;8.25;;;35.50;42.20;;;;;;4941296;29;20491;-14
2022/05/23 14:09:23;;;;;;;10.80;8.55;;;35.50;41.00;;;;;;4957202;29;20570;-14
2022/05/23 14:11:53;;;;;;;12.18;9.02;;;35.20;41.90;;;;;;4956740;29;20035;-14
2022/05/23 14:14:50;;;;;;;10.90;8.38;;;35.10;43.30;;;;;;4956623;29;20506;-14
2022/05/23 14:17:25;;;;;;;13.00;8.88;;;34.80;42.60;;;;;;4956605;29;20501;-13